Time,TemperatureF,DewpointF,PressureIn,WindDirection,WindDirectionDegrees,WindSpeedMPH,WindSpeedGustMPH,Humidity,HourlyPrecipIn,Conditions,Clouds,dailyrainin,SoftwareType,DateUTC
2013-08-28 00:10:00,67.2,65.0,29.89,NW,316,0.0,0.0,93,0.00,,,0.00,weatherlink.com 1.10,2013-08-28 04:10:00,
2013-08-28 00:25:00,66.9,65.0,29.89,NW,316,0.0,1.0,93,0.00,,,0.00,weatherlink.com 1.10,2013-08-28 04:25:00,
2013-08-28 00:40:00,66.7,65.0,29.89,NW,316,0.0,1.0,93,0.00,,,0.00,weatherlink.com 1.10,2013-08-28 04:40:00,
2013-08-28 00:55:00,66.5,65.0,29.89,NW,316,0.0,0.0,93,0.00,,,0.00,weatherlink.com 1.10,2013-08-28 04:55:00,
2013-08-28 01:10:00,66.7,65.0,29.88,NW,316,0.0,1.0,94,0.00,,,0.00,weatherlink.com 1.10,2013-08-28 05:10:00,
2013-08-28 01:25:00,66.6,65.0,29.87,NW,316,0.0,1.0,94,0.00,,,0.00,weatherlink.com 1.10,2013-08-28 05:25:00,
2013-08-28 01:40:00,66.4,65.0,29.87,NW,316,0.0,1.0,94,0.00,,,0.00,weatherlink.com 1.10,2013-08-28 05:40:00,
2013-08-28 01:55:00,66.1,64.0,29.87,NW,316,0.0,1.0,94,0.00,,,0.00,weatherlink.com 1.10,2013-08-28 05:55:00,
2013-08-28 02:10:00,65.9,65.0,29.87,NW,316,0.0,0.0,95,0.00,,,0.00,weatherlink.com 1.10,2013-08-28 06:10:00,
2013-08-28 02:25:00,66.2,65.0,29.86,NW,316,0.0,1.0,95,0.00,,,0.00,weatherlink.com 1.10,2013-08-28 06:25:00,
2013-08-28 02:40:00,65.8,64.0,29.86,NW,316,0.0,0.0,94,0.00,,,0.00,weatherlink.com 1.10,2013-08-28 06:40:00,
2013-08-28 02:56:00,65.3,64.0,29.86,NW,316,0.0,0.0,95,0.00,,,0.00,weatherlink.com 1.10,2013-08-28 06:56:00,
2013-08-28 03:11:00,65.5,64.0,29.86,NW,316,0.0,0.0,95,0.00,,,0.00,weatherlink.com 1.10,2013-08-28 07:11:00,
2013-08-28 03:26:00,65.4,64.0,29.86,NW,316,0.0,0.0,95,0.00,,,0.00,weatherlink.com 1.10,2013-08-28 07:26:00,
2013-08-28 03:41:00,65.2,64.0,29.85,NW,316,0.0,0.0,95,0.00,,,0.00,weatherlink.com 1.10,2013-08-28 07:41:00,
2013-08-28 03:56:00,65.0,64.0,29.86,NW,316,0.0,0.0,95,0.00,,,0.00,weatherlink.com 1.10,2013-08-28 07:56:00,
2013-08-28 04:11:00,65.0,64.0,29.86,NW,316,0.0,0.0,96,0.00,,,0.00,weatherlink.com 1.10,2013-08-28 08:11:00,
2013-08-28 04:26:00,64.9,64.0,29.86,NW,316,0.0,1.0,96,0.00,,,0.00,weatherlink.com 1.10,2013-08-28 08:26:00,
2013-08-28 04:41:00,64.8,64.0,29.86,NW,316,0.0,0.0,96,0.00,,,0.00,weatherlink.com 1.10,2013-08-28 08:41:00,
2013-08-28 04:56:00,64.6,64.0,29.86,NW,316,0.0,0.0,96,0.00,,,0.00,weatherlink.com 1.10,2013-08-28 08:56:00,
2013-08-28 05:11:00,64.2,63.0,29.87,NW,316,0.0,0.0,96,0.00,,,0.00,weatherlink.com 1.10,2013-08-28 09:11:00,
2013-08-28 05:26:00,64.1,63.0,29.87,NW,316,0.0,0.0,96,0.00,,,0.00,weatherlink.com 1.10,2013-08-28 09:26:00,
2013-08-28 05:41:00,64.0,63.0,29.87,NW,316,0.0,0.0,96,0.00,,,0.00,weatherlink.com 1.10,2013-08-28 09:41:00,
2013-08-28 05:56:00,63.9,63.0,29.88,NW,316,0.0,0.0,96,0.00,,,0.00,weatherlink.com 1.10,2013-08-28 09:56:00,
2013-08-28 06:11:00,64.1,63.0,29.88,NW,316,0.0,0.0,96,0.00,,,0.00,weatherlink.com 1.10,2013-08-28 10:11:00,
2013-08-28 06:26:00,64.2,63.0,29.88,NW,316,0.0,0.0,97,0.00,,,0.00,weatherlink.com 1.10,2013-08-28 10:26:00,
2013-08-28 06:41:00,64.6,64.0,29.89,NW,316,0.0,0.0,97,0.00,,,0.00,weatherlink.com 1.10,2013-08-28 10:41:00,
2013-08-28 06:56:00,64.7,64.0,29.89,NW,316,0.0,0.0,97,0.00,,,0.00,weatherlink.com 1.10,2013-08-28 10:56:00,
2013-08-28 07:11:00,65.3,65.0,29.89,NW,316,0.0,0.0,97,0.00,,,0.00,weatherlink.com 1.10,2013-08-28 11:11:00,
2013-08-28 07:26:00,66.1,65.0,29.89,NW,316,0.0,0.0,97,0.00,,,0.00,weatherlink.com 1.10,2013-08-28 11:26:00,
2013-08-28 07:41:00,67.9,67.0,29.89,NW,316,0.0,0.0,97,0.00,,,0.00,weatherlink.com 1.10,2013-08-28 11:41:00,
2013-08-28 07:56:00,70.2,69.0,29.89,SE,136,0.0,1.0,94,0.00,,,0.00,weatherlink.com 1.10,2013-08-28 11:56:00,
2013-08-28 08:11:00,72.3,68.0,29.89,SE,127,0.0,1.0,86,0.00,,,0.00,weatherlink.com 1.10,2013-08-28 12:11:00,
2013-08-28 08:26:00,73.6,67.0,29.89,NNE,32,0.0,2.0,81,0.00,,,0.00,weatherlink.com 1.10,2013-08-28 12:26:00,
2013-08-28 08:41:00,75.6,68.0,29.89,SE,144,0.0,3.0,76,0.00,,,0.00,weatherlink.com 1.10,2013-08-28 12:41:00,
2013-08-28 08:56:00,75.6,67.0,29.89,ESE,121,0.0,1.0,75,0.00,,,0.00,weatherlink.com 1.10,2013-08-28 12:56:00,
2013-08-28 09:11:00,76.4,68.0,29.90,SE,141,0.0,1.0,74,0.00,,,0.00,weatherlink.com 1.10,2013-08-28 13:11:00,
2013-08-28 09:26:00,76.8,68.0,29.90,South,190,0.0,2.0,74,0.00,,,0.00,weatherlink.com 1.10,2013-08-28 13:26:00,
2013-08-28 09:41:00,77.1,67.0,29.90,SE,139,0.0,2.0,71,0.00,,,0.00,weatherlink.com 1.10,2013-08-28 13:41:00,
2013-08-28 09:56:00,79.1,68.0,29.90,SSE,164,0.0,3.0,68,0.00,,,0.00,weatherlink.com 1.10,2013-08-28 13:56:00,
2013-08-28 10:11:00,79.2,67.0,29.90,SE,132,0.0,4.0,67,0.00,,,0.00,weatherlink.com 1.10,2013-08-28 14:11:00,
2013-08-28 10:26:00,80.2,67.0,29.90,NW,323,1.0,4.0,65,0.00,,,0.00,weatherlink.com 1.10,2013-08-28 14:26:00,
2013-08-28 10:41:00,80.5,67.0,29.90,SE,131,2.0,5.0,63,0.00,,,0.00,weatherlink.com 1.10,2013-08-28 14:41:00,
2013-08-28 10:56:00,80.7,67.0,29.89,ENE,77,1.0,6.0,63,0.00,,,0.00,weatherlink.com 1.10,2013-08-28 14:56:00,
2013-08-28 11:11:00,80.8,66.0,29.89,SE,134,1.0,6.0,62,0.00,,,0.00,weatherlink.com 1.10,2013-08-28 15:11:00,
2013-08-28 11:26:00,81.8,67.0,29.89,SE,139,1.0,5.0,61,0.00,,,0.00,weatherlink.com 1.10,2013-08-28 15:26:00,
2013-08-28 11:41:00,82.0,66.0,29.89,South,178,3.0,5.0,59,0.00,,,0.00,weatherlink.com 1.10,2013-08-28 15:41:00,
2013-08-28 11:56:00,82.0,66.0,29.89,South,183,2.0,7.0,59,0.00,,,0.00,weatherlink.com 1.10,2013-08-28 15:56:00,
2013-08-28 12:12:00,82.9,67.0,29.89,NE,53,1.0,4.0,59,0.00,,,0.00,weatherlink.com 1.10,2013-08-28 16:12:00,
2013-08-28 12:27:00,83.2,67.0,29.89,East,86,1.0,7.0,58,0.00,,,0.00,weatherlink.com 1.10,2013-08-28 16:27:00,
2013-08-28 12:57:00,84.7,66.0,29.88,SE,136,3.0,5.0,53,0.00,,,0.00,weatherlink.com 1.10,2013-08-28 16:57:00,
2013-08-28 13:12:00,84.6,67.0,29.88,SE,139,3.0,5.0,56,0.00,,,0.00,weatherlink.com 1.10,2013-08-28 17:12:00,
2013-08-28 13:27:00,84.9,68.0,29.88,SW,236,2.0,8.0,57,0.00,,,0.00,weatherlink.com 1.10,2013-08-28 17:27:00,
2013-08-28 13:42:00,84.2,68.0,29.88,East,80,3.0,4.0,58,0.00,,,0.00,weatherlink.com 1.10,2013-08-28 17:42:00,
2013-08-28 13:57:00,85.2,68.0,29.87,SSE,152,2.0,6.0,57,0.00,,,0.00,weatherlink.com 1.10,2013-08-28 17:57:00,
2013-08-28 14:12:00,83.8,67.0,29.87,SW,217,4.0,8.0,58,0.00,,,0.00,weatherlink.com 1.10,2013-08-28 18:12:00,
2013-08-28 14:27:00,83.7,65.0,29.87,ESE,119,3.0,12.0,54,0.00,,,0.00,weatherlink.com 1.10,2013-08-28 18:27:00,
2013-08-28 14:42:00,82.6,64.0,29.86,SE,128,3.0,5.0,54,0.00,,,0.00,weatherlink.com 1.10,2013-08-28 18:42:00,
2013-08-28 14:57:00,82.6,64.0,29.86,East,92,1.0,5.0,54,0.00,,,0.00,weatherlink.com 1.10,2013-08-28 18:57:00,
2013-08-28 15:12:00,83.3,65.0,29.86,SE,146,2.0,3.0,55,0.00,,,0.00,weatherlink.com 1.10,2013-08-28 19:12:00,
2013-08-28 15:27:00,82.2,65.0,29.86,SW,236,1.0,7.0,57,0.00,,,0.00,weatherlink.com 1.10,2013-08-28 19:27:00,
2013-08-28 15:42:00,81.4,67.0,29.86,SSE,160,1.0,7.0,61,0.00,,,0.00,weatherlink.com 1.10,2013-08-28 19:42:00,
2013-08-28 15:57:00,80.9,67.0,29.86,NNE,12,2.0,6.0,62,0.00,,,0.00,weatherlink.com 1.10,2013-08-28 19:57:00,
2013-08-28 16:12:00,79.5,66.0,29.86,South,169,3.0,8.0,64,0.00,,,0.00,weatherlink.com 1.10,2013-08-28 20:12:00,
2013-08-28 16:27:00,78.6,66.0,29.86,NNW,329,1.0,5.0,66,0.00,,,0.00,weatherlink.com 1.10,2013-08-28 20:27:00,
2013-08-28 16:57:00,76.6,66.0,29.88,SSW,205,0.0,2.0,70,0.00,,,0.00,weatherlink.com 1.10,2013-08-28 20:57:00,
2013-08-28 17:12:00,75.4,66.0,29.89,South,183,1.0,3.0,73,0.00,,,0.00,weatherlink.com 1.10,2013-08-28 21:12:00,
2013-08-28 17:27:00,74.8,66.0,29.88,North,354,0.0,2.0,74,0.00,,,0.00,weatherlink.com 1.10,2013-08-28 21:27:00,
2013-08-28 17:42:00,74.6,66.0,29.88,East,79,0.0,2.0,75,0.00,,,0.00,weatherlink.com 1.10,2013-08-28 21:42:00,
2013-08-28 17:57:00,73.6,66.0,29.88,East,87,0.0,2.0,77,0.00,,,0.00,weatherlink.com 1.10,2013-08-28 21:57:00,
2013-08-28 18:12:00,71.9,65.0,29.88,SSW,204,0.0,2.0,79,0.00,,,0.00,weatherlink.com 1.10,2013-08-28 22:12:00,
2013-08-28 18:27:00,70.6,65.0,29.89,SSE,160,0.0,2.0,82,0.00,,,0.00,weatherlink.com 1.10,2013-08-28 22:27:00,
2013-08-28 18:42:00,69.5,65.0,29.90,WNW,293,0.0,1.0,84,0.00,,,0.00,weatherlink.com 1.10,2013-08-28 22:42:00,
2013-08-28 18:57:00,69.1,65.0,29.89,NNE,12,0.0,2.0,85,0.00,,,0.00,weatherlink.com 1.10,2013-08-28 22:57:00,
2013-08-28 19:12:00,68.3,64.0,29.90,SSE,166,0.0,2.0,86,0.00,,,0.00,weatherlink.com 1.10,2013-08-28 23:12:00,
2013-08-28 19:27:00,67.8,64.0,29.91,SE,142,0.0,1.0,87,0.00,,,0.00,weatherlink.com 1.10,2013-08-28 23:27:00,
2013-08-28 19:42:00,67.2,64.0,29.91,East,95,2.0,2.0,89,0.00,,,0.00,weatherlink.com 1.10,2013-08-28 23:42:00,
2013-08-28 19:57:00,66.8,64.0,29.91,SE,132,0.0,1.0,90,0.00,,,0.00,weatherlink.com 1.10,2013-08-28 23:57:00,
2013-08-28 20:12:00,66.3,64.0,29.92,ESE,118,0.0,1.0,91,0.00,,,0.00,weatherlink.com 1.10,2013-08-29 00:12:00,
2013-08-28 20:27:00,65.9,63.0,29.92,SSE,161,0.0,1.0,91,0.00,,,0.00,weatherlink.com 1.10,2013-08-29 00:27:00,
2013-08-28 20:42:00,65.6,63.0,29.93,South,181,0.0,2.0,92,0.00,,,0.00,weatherlink.com 1.10,2013-08-29 00:42:00,
2013-08-28 20:57:00,65.2,63.0,29.92,SE,131,0.0,2.0,92,0.00,,,0.00,weatherlink.com 1.10,2013-08-29 00:57:00,
2013-08-28 21:12:00,64.9,63.0,29.93,SE,131,0.0,0.0,93,0.00,,,0.00,weatherlink.com 1.10,2013-08-29 01:12:00,
2013-08-28 21:27:00,64.8,63.0,29.93,SE,132,0.0,1.0,93,0.00,,,0.00,weatherlink.com 1.10,2013-08-29 01:27:00,
2013-08-28 21:42:00,64.8,63.0,29.93,NNE,15,0.0,2.0,94,0.00,,,0.00,weatherlink.com 1.10,2013-08-29 01:42:00,
2013-08-28 21:57:00,64.8,63.0,29.94,ESE,121,0.0,3.0,93,0.00,,,0.00,weatherlink.com 1.10,2013-08-29 01:57:00,
2013-08-28 22:12:00,64.4,62.0,29.95,ESE,107,2.0,6.0,93,0.00,,,0.00,weatherlink.com 1.10,2013-08-29 02:12:00,
2013-08-28 22:27:00,64.2,63.0,29.95,South,175,0.0,3.0,94,0.00,,,0.00,weatherlink.com 1.10,2013-08-29 02:27:00,
2013-08-28 22:42:00,64.3,63.0,29.96,ENE,63,1.0,2.0,94,0.00,,,0.00,weatherlink.com 1.10,2013-08-29 02:42:00,
2013-08-28 22:57:00,64.4,63.0,29.97,WNW,295,1.0,4.0,94,0.00,,,0.00,weatherlink.com 1.10,2013-08-29 02:57:00,
2013-08-28 23:12:00,64.5,63.0,29.97,NNW,337,3.0,5.0,94,0.00,,,0.00,weatherlink.com 1.10,2013-08-29 03:12:00,
2013-08-28 23:42:00,65.1,64.0,29.98,NNW,334,2.0,5.0,95,0.00,,,0.00,weatherlink.com 1.10,2013-08-29 03:42:00,
2013-08-28 23:57:00,65.2,64.0,29.97,NNE,20,2.0,3.0,94,0.00,,,0.00,weatherlink.com 1.10,2013-08-29 03:57:00,